Time;durP1;ratioP1;P1;durP2;ratioP2;P2;SDS_P1;SDS_P2;PMS_P1;PMS_P2;Temp;Humidity;BMP_temperature;BMP_pressure;BME280_temperature;BME280_humidity;BME280_pressure;Samples;Min_cycle;Max_cycle;Signal;HPM_P1;HPM_P2
2022/08/14 00:00:17;;;;;;;;;5.00;4.00;;;;;24.95;39.24;100447.50;6219887;22;44766;-86
2022/08/14 00:02:44;;;;;;;;;5.80;5.00;;;;;24.96;39.41;100440.19;6218387;22;45276;-86
2022/08/14 00:05:14;;;;;;;;;4.00;3.00;;;;;24.95;39.54;100435.75;6218281;22;45332;-87
2022/08/14 00:07:40;;;;;;;;;4.80;4.80;;;;;24.94;39.32;100428.66;6219279;22;44742;-87
2022/08/14 00:10:09;;;;;;;;;3.50;3.50;;;;;24.91;39.79;100429.91;6224649;22;44786;-87
2022/08/14 00:12:37;;;;;;;;;6.00;4.80;;;;;24.92;39.63;100425.31;6223110;22;45192;-88
2022/08/14 00:15:14;;;;;;;;;8.00;5.20;;;;;24.86;37.27;100419.66;6229585;22;45267;-87
2022/08/14 00:17:40;;;;;;;;;6.00;4.20;;;;;24.85;40.49;100417.13;6227272;22;45362;-88
2022/08/14 00:20:07;;;;;;;;;5.00;5.00;;;;;24.82;42.27;100410.25;6219131;22;45172;-88
2022/08/14 00:22:33;;;;;;;;;4.25;4.25;;;;;24.80;40.52;100403.31;6217010;22;45260;-87
2022/08/14 00:24:58;;;;;;;;;6.50;4.00;;;;;24.77;40.24;100401.03;6217865;22;45280;-87
2022/08/14 00:27:24;;;;;;;;;4.50;4.50;;;;;24.73;41.38;100394.31;6218623;22;45229;-87
2022/08/14 00:29:49;;;;;;;;;4.50;4.50;;;;;24.71;41.25;100391.81;6218947;22;44778;-87
2022/08/14 00:32:15;;;;;;;;;3.50;3.50;;;;;24.65;39.56;100392.59;6189705;22;45447;-87
2022/08/14 00:34:40;;;;;;;;;3.25;3.25;;;;;24.64;41.50;100382.78;6221691;22;44737;-86
2022/08/14 00:37:05;;;;;;;;;5.00;5.00;;;;;24.62;41.56;100382.16;6194668;22;44679;-86
2022/08/14 00:39:31;;;;;;;;;5.00;5.00;;;;;24.61;42.31;100380.47;6223452;22;45225;-87
2022/08/14 00:41:56;;;;;;;;;4.25;4.25;;;;;24.58;41.30;100380.88;6195845;22;45221;-89
2022/08/14 00:44:22;;;;;;;;;2.00;2.00;;;;;24.56;42.72;100382.94;6220254;22;44604;-88
2022/08/14 00:46:48;;;;;;;;;7.00;5.75;;;;;24.53;42.16;100388.81;6190260;22;44682;-89
2022/08/14 00:49:14;;;;;;;;;5.00;5.00;;;;;24.49;43.26;100387.53;6189791;22;44985;-89
2022/08/14 00:51:40;;;;;;;;;6.00;6.00;;;;;24.44;42.21;100385.41;6216702;22;45491;-89
2022/08/14 00:54:06;;;;;;;;;4.80;4.60;;;;;24.39;44.48;100374.31;6217259;22;45267;-90
2022/08/14 00:56:32;;;;;;;;;4.00;4.00;;;;;24.34;43.07;100369.47;6219129;22;44770;-89
2022/08/14 00:58:59;;;;;;;;;5.00;5.00;;;;;24.32;46.27;100376.13;6193764;22;44777;-89
2022/08/14 01:01:24;;;;;;;;;6.40;4.80;;;;;24.26;44.76;100366.06;6215828;22;45248;-87
2022/08/14 01:03:52;;;;;;;;;4.50;4.50;;;;;24.23;44.43;100367.34;6220469;22;44679;-86
2022/08/14 01:06:17;;;;;;;;;3.20;3.20;;;;;24.21;44.70;100365.84;6198267;22;45206;-86
2022/08/14 01:08:44;;;;;;;;;7.00;5.00;;;;;24.17;45.33;100361.84;6224477;22;45172;-87
2022/08/14 01:11:14;;;;;;;;;6.00;6.00;;;;;24.13;45.08;100352.44;6215518;22;45134;-86
2022/08/14 01:13:43;;;;;;;;;7.00;5.40;;;;;24.07;45.32;100345.94;6217290;22;44781;-88
2022/08/14 01:16:16;;;;;;;;;5.00;5.00;;;;;24.03;46.91;100341.94;6189945;22;44740;-86
2022/08/14 01:21:35;;;;;;;;;5.60;5.00;;;;;23.98;45.94;100336.28;6220811;22;44940;-86
2022/08/14 01:24:01;;;;;;;;;5.80;5.80;;;;;23.93;46.03;100331.44;6220476;22;45224;-86
2022/08/14 01:26:27;;;;;;;;;7.00;5.20;;;;;23.89;49.13;100324.75;6221134;22;45232;-86
2022/08/14 01:28:56;;;;;;;;;6.00;6.00;;;;;23.87;49.70;100318.69;6196650;22;44882;-86
2022/08/14 01:31:34;;;;;;;;;6.75;5.00;;;;;23.84;47.92;100324.53;6199166;22;45331;-86
2022/08/14 01:34:03;;;;;;;;;6.40;4.60;;;;;23.81;50.78;100323.03;6227994;22;44809;-87
2022/08/14 01:36:36;;;;;;;;;7.40;7.40;;;;;23.79;49.33;100327.84;6224829;22;44846;-86
2022/08/14 01:39:05;;;;;;;;;6.50;5.25;;;;;23.77;49.26;100326.34;6221382;22;44802;-87
2022/08/14 01:41:31;;;;;;;;;6.60;6.60;;;;;23.76;48.52;100330.09;6194548;22;46131;-86
2022/08/14 01:44:00;;;;;;;;;6.50;6.00;;;;;23.73;48.41;100334.03;6220570;22;45072;-86
2022/08/14 01:46:31;;;;;;;;;4.80;4.80;;;;;23.73;50.88;100331.31;6222580;22;44666;-86
2022/08/14 01:48:57;;;;;;;;;5.25;5.25;;;;;23.69;49.32;100331.91;6224708;22;45295;-86
2022/08/14 01:51:27;;;;;;;;;5.00;5.00;;;;;23.67;49.68;100326.69;6224908;22;45175;-86
2022/08/14 01:53:54;;;;;;;;;8.60;7.60;;;;;23.65;51.76;100326.06;6220922;22;44652;-85
2022/08/14 01:56:23;;;;;;;;;6.40;6.40;;;;;23.63;49.66;100324.53;6220463;22;44750;-87
2022/08/14 01:58:49;;;;;;;;;6.25;6.25;;;;;23.62;50.94;100322.88;6220681;22;44800;-89
2022/08/14 02:01:17;;;;;;;;;6.40;5.00;;;;;23.60;46.47;100323.09;6222109;22;45380;-89
2022/08/14 02:03:43;;;;;;;;;7.20;7.20;;;;;23.60;48.82;100315.78;6224596;22;44738;-89
2022/08/14 02:06:10;;;;;;;;;4.80;4.80;;;;;23.59;50.10;100319.53;6225198;22;45149;-90
2022/08/14 02:08:37;;;;;;;;;5.00;5.00;;;;;23.59;51.98;100315.97;6229230;22;44784;-88
2022/08/14 02:11:17;;;;;;;;;4.80;4.80;;;;;23.59;51.25;100315.97;6229037;22;45087;-88
2022/08/14 02:13:49;;;;;;;;;4.40;4.40;;;;;23.56;48.60;100310.94;6205512;22;44689;-89
2022/08/14 02:16:17;;;;;;;;;4.20;4.20;;;;;23.55;49.55;100307.41;6222208;22;44624;-88
2022/08/14 02:18:43;;;;;;;;;5.00;5.00;;;;;23.53;51.74;100303.19;6219874;22;44775;-88
2022/08/14 02:21:11;;;;;;;;;3.25;3.25;;;;;23.51;52.93;100297.97;6218344;22;45088;-89
2022/08/14 02:23:37;;;;;;;;;6.20;5.00;;;;;23.50;53.27;100298.19;6217112;22;44711;-88
2022/08/14 02:26:14;;;;;;;;;4.00;4.00;;;;;23.48;49.31;100302.94;6217135;22;44766;-89
2022/08/14 02:28:40;;;;;;;;;7.00;5.00;;;;;23.47;52.86;100287.72;6216460;22;44707;-89
2022/08/14 02:31:07;;;;;;;;;4.25;4.25;;;;;23.46;55.30;100286.88;6189848;22;47243;-88
2022/08/14 02:33:34;;;;;;;;;3.80;3.80;;;;;23.43;50.52;100284.56;6219369;22;45165;-89
2022/08/14 02:36:03;;;;;;;;;4.60;4.60;;;;;23.43;53.41;100281.84;6222362;22;44714;-89
2022/08/14 02:38:29;;;;;;;;;7.00;5.25;;;;;23.43;53.72;100281.84;6226209;22;44850;-88
2022/08/14 02:40:58;;;;;;;;;6.75;4.00;;;;;23.39;55.09;100280.56;6199437;22;46712;-89
2022/08/14 02:43:25;;;;;;;;;4.60;4.60;;;;;23.39;55.49;100277.03;6220599;22;45390;-88
2022/08/14 02:45:50;;;;;;;;;0.00;0.00;;;;;23.34;56.23;100270.31;6169571;22;44755;-90
2022/08/14 02:48:16;;;;;;;;;5.00;5.00;;;;;23.34;55.79;100270.31;6192027;22;44789;-89
2022/08/14 02:50:42;;;;;;;;;6.00;4.00;;;;;23.33;54.51;100262.38;6221086;22;46111;-89
2022/08/14 02:53:10;;;;;;;;;6.00;4.00;;;;;23.32;54.85;100268.84;6223101;22;44742;-89
2022/08/14 02:55:37;;;;;;;;;3.60;3.60;;;;;23.30;55.04;100260.91;6223511;22;44691;-88
2022/08/14 02:58:04;;;;;;;;;6.50;5.50;;;;;23.29;55.96;100258.41;6222396;22;45177;-88
2022/08/14 03:00:32;;;;;;;;;7.00;5.50;;;;;23.27;56.21;100257.75;6222482;22;45262;-89
2022/08/14 03:02:57;;;;;;;;;6.40;5.60;;;;;23.23;53.46;100261.91;6192122;22;44651;-90
2022/08/14 03:05:23;;;;;;;;;5.20;4.00;;;;;23.24;57.41;100264.41;6219147;22;44753;-88
2022/08/14 03:07:49;;;;;;;;;5.00;5.00;;;;;23.21;58.57;100255.81;6219077;22;44661;-88
2022/08/14 03:10:14;;;;;;;;;4.75;4.75;;;;;23.21;56.95;100256.69;6220578;22;44999;-89
2022/08/14 03:12:39;;;;;;;;;5.50;4.25;;;;;23.21;58.94;100267.53;6222522;22;44720;-89
2022/08/14 03:15:12;;;;;;;;;3.00;3.00;;;;;23.18;56.83;100259.78;6194558;22;45122;-88
2022/08/14 03:17:38;;;;;;;;;6.00;5.00;;;;;23.16;57.11;100267.28;6220470;22;44746;-89
2022/08/14 03:20:05;;;;;;;;;4.75;4.00;;;;;23.15;59.10;100272.88;6217814;22;45351;-88
2022/08/14 03:22:32;;;;;;;;;6.00;5.00;;;;;23.12;57.78;100268.69;6220448;22;44595;-89
2022/08/14 03:25:00;;;;;;;;;4.60;4.60;;;;;23.09;58.95;100269.09;6220751;22;45109;-89
2022/08/14 03:27:29;;;;;;;;;4.75;4.00;;;;;23.08;58.28;100264.69;6222349;22;45243;-88
2022/08/14 03:29:54;;;;;;;;;5.40;5.40;;;;;23.06;57.54;100262.19;6195456;22;46874;-88
2022/08/14 03:32:19;;;;;;;;;6.00;6.00;;;;;23.04;57.06;100258.81;6221118;22;44726;-89
2022/08/14 03:34:46;;;;;;;;;5.00;5.00;;;;;23.07;59.03;100265.75;6196023;22;44830;-88
2022/08/14 03:37:11;;;;;;;;;6.25;4.50;;;;;23.06;59.26;100261.34;6221637;22;45093;-88
2022/08/14 03:39:37;;;;;;;;;4.75;4.75;;;;;23.04;59.42;100261.53;6227882;22;44932;-88
2022/08/14 03:42:03;;;;;;;;;6.50;6.00;;;;;23.04;58.92;100261.53;6236202;22;44589;-89
2022/08/14 03:44:28;;;;;;;;;7.00;6.00;;;;;23.05;58.35;100259.66;6237608;22;44638;-89
2022/08/14 03:46:53;;;;;;;;;3.00;3.00;;;;;23.05;60.40;100262.38;6206426;22;45232;-88
2022/08/14 03:49:23;;;;;;;;;4.50;4.50;;;;;23.04;59.39;100266.13;6196154;22;45549;-87
2022/08/14 03:51:49;;;;;;;;;6.00;5.00;;;;;23.03;59.07;100275.28;6222199;22;45284;-88
2022/08/14 03:54:15;;;;;;;;;5.00;5.00;;;;;23.02;61.11;100274.47;6220196;22;44702;-89
2022/08/14 03:56:43;;;;;;;;;4.00;4.00;;;;;23.05;59.04;100284.06;6218934;22;44787;-88
2022/08/14 03:59:12;;;;;;;;;7.00;5.50;;;;;23.05;58.62;100286.75;6197559;22;47148;-89
2022/08/14 04:01:39;;;;;;;;;4.00;4.00;;;;;23.05;59.11;100293.00;6209500;22;44774;-89
2022/08/14 04:04:07;;;;;;;;;7.00;6.00;;;;;23.03;59.25;100295.09;6239724;22;44631;-89
2022/08/14 04:06:34;;;;;;;;;5.00;5.00;;;;;23.02;59.75;100306.97;6239654;22;44827;-89
2022/08/14 04:09:00;;;;;;;;;6.50;5.50;;;;;22.99;60.57;100303.81;6238165;22;45107;-89
2022/08/14 04:11:26;;;;;;;;;5.00;5.00;;;;;22.93;61.36;100305.41;6211966;22;44679;-89
2022/08/14 04:13:53;;;;;;;;;5.00;5.00;;;;;22.91;61.49;100299.34;6232219;22;44710;-89
2022/08/14 04:16:21;;;;;;;;;4.00;4.00;;;;;22.86;61.68;100296.34;6241022;22;44856;-88
2022/08/14 04:18:51;;;;;;;;;6.00;5.00;;;;;22.83;61.56;100297.59;6214709;22;46629;-90
2022/08/14 04:21:23;;;;;;;;;5.00;5.00;;;;;22.78;63.19;100301.91;6240191;22;44746;-88
2022/08/14 04:23:50;;;;;;;;;4.80;4.20;;;;;22.76;62.71;100299.38;6241740;22;44612;-89
2022/08/14 04:26:21;;;;;;;;;5.50;5.50;;;;;22.73;62.89;100301.66;6240664;22;44790;-91
2022/08/14 04:28:48;;;;;;;;;4.80;4.20;;;;;22.74;63.37;100306.03;6233984;22;45361;-88
2022/08/14 04:31:15;;;;;;;;;7.40;5.00;;;;;22.72;63.61;100292.66;6204785;22;44644;-90
2022/08/14 04:33:41;;;;;;;;;6.00;5.00;;;;;22.75;64.62;100277.91;6223135;22;44759;-87
2022/08/14 04:36:07;;;;;;;;;5.50;5.00;;;;;22.77;63.98;100279.41;6220648;22;44756;-88
2022/08/14 04:44:01;;;;;;;;;6.00;5.40;;;;;22.82;66.54;100265.25;6222955;22;45270;-87
2022/08/14 04:46:27;;;;;;;;;4.50;4.50;;;;;22.83;64.16;100265.09;6170682;22;44906;-86
2022/08/14 04:48:53;;;;;;;;;6.25;3.50;;;;;22.84;65.27;100257.78;6220400;22;45156;-89
2022/08/14 04:51:24;;;;;;;;;4.20;3.60;;;;;22.81;64.21;100258.16;6194048;22;45256;-89
2022/08/14 04:53:50;;;;;;;;;5.20;5.20;;;;;22.81;64.75;100253.59;6193395;22;44672;-88
2022/08/14 04:56:21;;;;;;;;;3.50;3.50;;;;;22.81;64.25;100250.03;6193956;22;44810;-90
2022/08/14 04:58:48;;;;;;;;;5.80;5.00;;;;;22.79;64.67;100244.00;6222942;22;45378;-90
2022/08/14 05:01:14;;;;;;;;;5.00;4.00;;;;;22.78;65.62;100245.88;6195366;22;44572;-89
2022/08/14 05:03:40;;;;;;;;;5.00;5.00;;;;;22.78;64.39;100240.44;6223464;22;44859;-89
2022/08/14 05:06:08;;;;;;;;;5.75;4.00;;;;;22.84;63.97;100246.94;6195666;22;44987;-89
2022/08/14 05:08:35;;;;;;;;;4.00;4.00;;;;;22.86;64.40;100238.63;6198704;22;46710;-88
2022/08/14 05:11:03;;;;;;;;;5.60;4.80;;;;;22.88;64.40;100239.28;6200099;22;44747;-89
2022/08/14 05:13:30;;;;;;;;;6.80;6.00;;;;;22.87;64.48;100232.16;6224627;22;44703;-90
2022/08/14 05:16:00;;;;;;;;;4.80;4.80;;;;;22.89;65.32;100243.69;6194194;22;44900;-90
2022/08/14 05:18:30;;;;;;;;;5.00;5.00;;;;;22.85;63.71;100248.63;6222274;22;44916;-90
2022/08/14 05:20:58;;;;;;;;;4.80;4.80;;;;;22.83;65.71;100246.13;6221367;22;45179;-90
2022/08/14 05:23:27;;;;;;;;;4.00;4.00;;;;;22.82;67.01;100252.56;6222856;22;45152;-89
2022/08/14 05:26:11;;;;;;;;;7.00;4.75;;;;;22.82;64.44;100268.81;6219804;22;44769;-90
2022/08/14 05:28:40;;;;;;;;;5.80;5.00;;;;;22.81;67.42;100248.16;6217085;22;45190;-90
2022/08/14 05:31:06;;;;;;;;;6.00;6.00;;;;;22.79;65.67;100255.66;6220117;22;45219;-90
2022/08/14 05:33:34;;;;;;;;;5.00;5.00;;;;;22.83;65.08;100261.53;6219369;22;44862;-90
2022/08/14 05:36:06;;;;;;;;;6.50;5.25;;;;;22.83;65.75;100256.94;6219690;22;44735;-90
2022/08/14 05:38:41;;;;;;;;;4.75;4.75;;;;;22.90;65.39;100248.91;6191716;22;46581;-89
2022/08/14 05:41:11;;;;;;;;;6.00;5.20;;;;;22.92;66.22;100243.28;6217468;22;45199;-89
2022/08/14 05:43:38;;;;;;;;;4.00;4.00;;;;;23.03;64.82;100245.47;6190004;22;44667;-90
2022/08/14 05:46:04;;;;;;;;;6.00;4.75;;;;;23.25;65.52;100232.72;6192375;22;44859;-90
2022/08/14 05:48:32;;;;;;;;;6.00;6.00;;;;;23.54;64.05;100235.19;6224857;22;45327;-90
2022/08/14 05:50:58;;;;;;;;;6.40;5.40;;;;;23.88;63.24;100232.69;6220950;22;45304;-90
2022/08/14 05:53:26;;;;;;;;;5.00;5.00;;;;;24.18;63.48;100230.53;6222314;22;44754;-90
2022/08/14 05:55:54;;;;;;;;;7.00;6.00;;;;;24.45;63.26;100234.19;6194283;22;44758;-89
2022/08/14 05:58:20;;;;;;;;;5.00;5.00;;;;;24.72;62.49;100235.91;6222122;22;45361;-89
2022/08/14 06:00:46;;;;;;;;;5.20;5.20;;;;;24.96;60.93;100231.75;6220266;22;44753;-88
2022/08/14 06:03:17;;;;;;;;;5.20;5.20;;;;;25.16;59.98;100226.31;6201051;22;44715;-88
2022/08/14 06:05:45;;;;;;;;;4.20;4.20;;;;;25.31;59.64;100232.38;6201045;22;45218;-88
2022/08/14 06:08:28;;;;;;;;;7.60;5.00;;;;;25.46;58.29;100232.13;6222350;22;45385;-89
2022/08/14 06:11:01;;;;;;;;;5.80;5.80;;;;;25.56;58.91;100226.25;6217526;22;44629;-88
2022/08/14 06:13:28;;;;;;;;;7.40;5.80;;;;;25.62;58.54;100228.09;6220261;22;44730;-89
2022/08/14 06:15:53;;;;;;;;;5.00;5.00;;;;;25.62;58.32;100228.94;6217337;22;45406;-88
2022/08/14 06:18:19;;;;;;;;;7.75;6.50;;;;;25.66;57.64;100217.63;6189908;22;45298;-89
2022/08/14 06:20:44;;;;;;;;;6.00;4.00;;;;;25.70;57.67;100214.28;6218591;22;44654;-89
2022/08/14 06:23:10;;;;;;;;;5.00;4.00;;;;;25.76;56.21;100226.22;6217031;22;44626;-89
2022/08/14 06:25:35;;;;;;;;;5.50;5.50;;;;;25.77;57.17;100215.13;6189825;22;44869;-89
2022/08/14 06:28:00;;;;;;;;;5.00;5.00;;;;;25.76;56.57;100216.16;6220517;22;45178;-89
2022/08/14 06:30:29;;;;;;;;;4.00;4.00;;;;;25.70;57.34;100216.16;6222148;22;44694;-89
2022/08/14 06:32:55;;;;;;;;;5.00;5.00;;;;;25.62;57.01;100212.63;6224191;22;44725;-88
2022/08/14 06:35:21;;;;;;;;;5.00;5.00;;;;;25.49;58.40;100229.00;6225771;22;45245;-88
2022/08/14 06:37:51;;;;;;;;;5.00;5.00;;;;;25.35;58.72;100238.22;6229841;22;45320;-89
2022/08/14 06:40:31;;;;;;;;;5.40;5.40;;;;;25.20;60.44;100227.56;6224603;22;45168;-89
2022/08/14 06:43:04;;;;;;;;;5.00;5.00;;;;;25.10;59.05;100238.88;6222353;22;44640;-89
2022/08/14 06:45:32;;;;;;;;;6.20;5.40;;;;;24.99;60.14;100233.19;6227514;22;44721;-90
2022/08/14 06:47:57;;;;;;;;;4.80;4.80;;;;;24.92;60.38;100245.94;6201292;22;45495;-89
2022/08/14 06:50:26;;;;;;;;;6.00;4.50;;;;;24.84;61.17;100242.38;6199187;22;44733;-89
2022/08/14 06:52:52;;;;;;;;;6.40;6.00;;;;;24.72;62.37;100243.22;6196370;22;44675;-89
2022/08/14 06:55:18;;;;;;;;;6.20;6.20;;;;;24.64;60.09;100246.13;6223928;22;45184;-89
2022/08/14 06:57:49;;;;;;;;;7.00;7.00;;;;;24.59;60.66;100244.84;6199113;22;46728;-88
2022/08/14 07:00:20;;;;;;;;;4.60;4.00;;;;;24.56;62.24;100250.72;6200430;22;44592;-88
2022/08/14 07:05:47;;;;;;;;;6.75;5.00;;;;;24.54;61.83;100250.06;6220767;22;44722;-89
2022/08/14 07:08:20;;;;;;;;;6.50;6.50;;;;;24.56;63.26;100258.88;6192782;22;45324;-89
2022/08/14 07:10:49;;;;;;;;;5.00;5.00;;;;;24.56;62.14;100260.72;6216687;22;44769;-88
2022/08/14 07:13:19;;;;;;;;;6.20;5.40;;;;;24.55;63.44;100268.03;6217400;22;44737;-89
2022/08/14 07:15:47;;;;;;;;;4.40;3.80;;;;;24.62;62.37;100268.06;6216862;22;44778;-88
2022/08/14 07:18:13;;;;;;;;;3.40;3.40;;;;;24.75;62.44;100265.34;6218184;22;45203;-87
2022/08/14 07:20:40;;;;;;;;;6.00;6.00;;;;;24.87;62.67;100273.75;6189768;22;45279;-88
2022/08/14 07:23:08;;;;;;;;;5.20;5.20;;;;;25.06;60.71;100269.38;6216453;22;44681;-89
2022/08/14 07:25:38;;;;;;;;;6.00;6.00;;;;;25.20;60.79;100262.09;6192730;22;44914;-88
2022/08/14 07:28:13;;;;;;;;;6.60;4.80;;;;;25.36;60.87;100257.03;6217702;22;45323;-88
2022/08/14 07:30:38;;;;;;;;;7.40;5.00;;;;;25.54;57.25;100258.28;6192276;22;44692;-88
2022/08/14 07:33:04;;;;;;;;;5.25;4.50;;;;;25.73;58.54;100260.13;6219740;22;44742;-88
2022/08/14 07:35:30;;;;;;;;;6.25;6.25;;;;;25.97;57.53;100264.06;6193229;22;44956;-89
2022/08/14 07:37:56;;;;;;;;;8.40;5.00;;;;;26.21;56.58;100261.66;6222679;22;45010;-89
2022/08/14 07:40:23;;;;;;;;;5.25;5.25;;;;;26.41;55.13;100262.38;6193689;22;44647;-89
2022/08/14 07:42:48;;;;;;;;;6.00;6.00;;;;;26.44;53.60;100253.78;6218884;22;44758;-89
2022/08/14 07:45:13;;;;;;;;;6.00;6.00;;;;;26.54;54.36;100242.41;6219272;22;44812;-88
2022/08/14 07:47:41;;;;;;;;;5.75;5.75;;;;;26.62;52.56;100239.44;6192109;22;45237;-89
2022/08/14 07:50:16;;;;;;;;;5.20;3.40;;;;;26.44;54.04;100228.44;6221124;22;45328;-89
2022/08/14 07:52:43;;;;;;;;;5.40;4.40;;;;;26.42;53.56;100222.34;6226835;22;44695;-88
2022/08/14 07:55:11;;;;;;;;;8.75;5.00;;;;;26.29;53.64;100217.81;6226159;22;44797;-88
2022/08/14 07:57:41;;;;;;;;;4.20;4.20;;;;;26.36;54.26;100224.91;6191882;22;45867;-88
2022/08/14 08:00:10;;;;;;;;;4.00;4.00;;;;;26.42;53.10;100225.91;6215904;22;44730;-88
2022/08/14 08:02:38;;;;;;;;;5.40;5.00;;;;;26.65;51.93;100241.72;6190463;22;45276;-89
2022/08/14 08:05:05;;;;;;;;;5.50;5.50;;;;;26.94;52.04;100236.69;6220624;22;44878;-88
2022/08/14 08:07:30;;;;;;;;;5.60;5.60;;;;;27.20;51.63;100232.94;6227833;22;45393;-87
2022/08/14 08:09:58;;;;;;;;;6.25;5.25;;;;;27.38;51.23;100238.44;6238991;22;44704;-87
2022/08/14 08:12:25;;;;;;;;;6.00;4.00;;;;;27.36;50.14;100233.16;6209353;22;44762;-88
2022/08/14 08:14:51;;;;;;;;;7.00;6.00;;;;;27.37;50.94;100239.50;6172963;22;45435;-88
2022/08/14 08:17:21;;;;;;;;;8.00;6.00;;;;;27.41;49.68;100241.53;6200498;22;45227;-87
2022/08/14 08:19:47;;;;;;;;;5.60;5.60;;;;;27.26;51.21;100238.31;6224875;22;44821;-84
2022/08/14 08:22:13;;;;;;;;;9.25;6.50;;;;;27.17;53.89;100239.66;6218328;22;44785;-85
2022/08/14 08:24:38;;;;;;;;;5.00;4.75;;;;;27.27;53.32;100248.19;6215582;22;45505;-85
2022/08/14 08:27:15;;;;;;;;;5.25;5.25;;;;;27.39;52.60;100264.63;6215099;22;45160;-85
2022/08/14 08:29:41;;;;;;;;;5.80;5.80;;;;;27.53;54.77;100258.00;6216037;22;44666;-85
2022/08/14 08:32:07;;;;;;;;;8.00;7.25;;;;;27.59;59.74;100251.63;6188830;22;44726;-86
2022/08/14 08:34:44;;;;;;;;;12.50;10.00;;;;;27.49;62.46;100258.66;6216035;22;44808;-85
2022/08/14 08:37:09;;;;;;;;;6.20;4.60;;;;;27.47;67.84;100247.16;6221428;22;45083;-88
2022/08/14 08:39:46;;;;;;;;;6.25;6.25;;;;;27.48;70.14;100229.72;6222864;22;45247;-87
2022/08/14 08:42:11;;;;;;;;;7.00;7.00;;;;;27.60;70.95;100225.16;6228543;22;44734;-89
2022/08/14 08:44:37;;;;;;;;;5.00;4.25;;;;;27.49;75.25;100223.19;6205296;22;44794;-89
2022/08/14 08:47:04;;;;;;;;;7.00;7.00;;;;;27.47;76.13;100217.16;6204480;22;47722;-91
2022/08/14 08:49:41;;;;;;;;;1.40;1.20;;;;;27.29;77.94;100207.88;6197821;22;44806;-88
2022/08/14 08:52:07;;;;;;;;;8.00;8.00;;;;;27.18;80.58;100202.34;6217038;22;44715;-86
2022/08/14 08:54:33;;;;;;;;;8.75;8.75;;;;;27.23;80.45;100202.50;6215963;22;44829;-85
2022/08/14 08:56:58;;;;;;;;;5.00;5.00;;;;;27.29;80.87;100199.69;6212945;22;45242;-82
2022/08/14 08:59:29;;;;;;;;;5.50;5.00;;;;;27.46;80.24;100202.63;6212442;22;45260;-82
2022/08/14 09:01:57;;;;;;;;;6.00;6.00;;;;;27.43;80.51;100203.09;6215019;22;44910;-82
2022/08/14 09:04:25;;;;;;;;;8.00;7.00;;;;;27.45;80.01;100216.53;6214621;22;45226;-81
2022/08/14 09:06:51;;;;;;;;;7.00;6.80;;;;;27.36;79.66;100235.91;6212536;22;45409;-82
2022/08/14 09:09:28;;;;;;;;;6.20;6.20;;;;;27.61;78.89;100219.50;6211990;22;44768;-81
2022/08/14 09:11:55;;;;;;;;;2.80;2.80;;;;;27.77;77.43;100211.78;6212906;22;45170;-81
2022/08/14 09:14:21;;;;;;;;;6.50;5.75;;;;;27.90;77.17;100211.63;6213606;22;45105;-81
2022/08/14 09:16:48;;;;;;;;;4.40;4.40;;;;;28.10;76.66;100206.75;6212858;22;45215;-81
2022/08/14 09:19:14;;;;;;;;;6.00;6.00;;;;;28.36;74.74;100200.09;6188177;22;45426;-82
2022/08/14 09:21:40;;;;;;;;;7.00;5.40;;;;;28.32;74.04;100200.75;6216089;22;45252;-81
2022/08/14 09:24:07;;;;;;;;;5.75;5.75;;;;;28.37;73.35;100206.38;6216530;22;44765;-81
2022/08/14 09:26:34;;;;;;;;;4.80;4.60;;;;;28.39;73.48;100204.28;6215238;22;46106;-81
2022/08/14 09:29:00;;;;;;;;;6.40;6.00;;;;;28.30;75.00;100217.41;6215800;22;44741;-80
2022/08/14 09:31:28;;;;;;;;;8.75;7.25;;;;;28.48;74.19;100212.94;6214386;22;44707;-81
2022/08/14 09:34:12;;;;;;;;;9.25;6.75;;;;;28.70;72.50;100219.56;6213876;22;44848;-81
2022/08/14 09:37:30;;;;;;;;;5.40;5.40;;;;;28.48;72.74;100219.28;6214002;22;45255;-78
2022/08/14 09:40:07;;;;;;;;;6.40;6.40;;;;;28.53;73.26;100218.53;6207712;22;45244;-79
2022/08/14 09:42:41;;;;;;;;;6.40;6.00;;;;;28.56;72.05;100218.09;6213113;22;44731;-80
2022/08/14 09:45:15;;;;;;;;;5.60;5.00;;;;;28.52;70.75;100220.44;6213504;22;44694;-79
2022/08/14 09:47:42;;;;;;;;;5.60;5.60;;;;;28.57;71.67;100212.38;6213863;22;45201;-79
2022/08/14 09:50:28;;;;;;;;;6.40;6.40;;;;;28.73;70.51;100212.81;6212057;22;45277;-78
2022/08/14 09:53:02;;;;;;;;;7.40;6.00;;;;;28.75;69.66;100222.41;6213450;22;45272;-79
2022/08/14 09:55:34;;;;;;;;;7.60;7.00;;;;;28.81;67.93;100212.44;6213913;22;44866;-79
2022/08/14 09:58:08;;;;;;;;;3.00;3.00;;;;;29.03;67.72;100201.81;6212814;22;45235;-78
2022/08/14 10:00:47;;;;;;;;;7.00;6.00;;;;;29.24;67.03;100203.09;6186541;22;44738;-79
2022/08/14 10:03:26;;;;;;;;;7.60;6.40;;;;;29.30;66.32;100200.25;6214027;22;45322;-79
2022/08/14 10:06:10;;;;;;;;;5.60;5.00;;;;;29.23;66.90;100195.97;6213683;22;44835;-77
2022/08/14 10:08:50;;;;;;;;;5.60;5.60;;;;;29.20;68.10;100205.47;6214355;22;45006;-78
2022/08/14 10:11:22;;;;;;;;;5.20;5.20;;;;;29.14;68.38;100195.50;6214787;22;44759;-79
2022/08/14 10:13:53;;;;;;;;;6.40;5.20;;;;;29.21;67.45;100203.59;6215356;22;45225;-81
2022/08/14 10:16:27;;;;;;;;;7.25;6.50;;;;;29.32;67.62;100194.53;6215404;22;44641;-79
2022/08/14 10:19:05;;;;;;;;;8.60;7.20;;;;;29.38;68.13;100194.41;6215499;22;45267;-79
2022/08/14 10:21:30;;;;;;;;;6.80;6.80;;;;;29.49;68.22;100200.94;6212499;22;45300;-79
2022/08/14 10:23:56;;;;;;;;;4.50;4.50;;;;;29.61;67.94;100206.44;6214111;22;44624;-78
2022/08/14 10:26:23;;;;;;;;;5.00;5.00;;;;;29.78;67.08;100210.06;6214715;22;44681;-78
2022/08/14 10:28:50;;;;;;;;;7.00;5.00;;;;;29.67;66.24;100214.50;6212713;22;45210;-79
2022/08/14 10:31:23;;;;;;;;;5.00;5.00;;;;;29.57;65.17;100211.56;6214528;22;44808;-79
2022/08/14 10:34:04;;;;;;;;;5.80;5.80;;;;;29.56;64.71;100211.81;6214038;22;44658;-79
2022/08/14 10:36:52;;;;;;;;;5.00;1.40;;;;;29.53;66.20;100215.81;6215217;22;44789;-78
2022/08/14 10:39:19;;;;;;;;;5.80;5.00;;;;;29.78;66.57;100221.03;6213669;22;45093;-79
2022/08/14 10:41:45;;;;;;;;;5.40;5.40;;;;;29.78;66.90;100221.03;6215457;22;45187;-79
2022/08/14 10:44:21;;;;;;;;;6.20;4.40;;;;;29.89;66.59;100224.84;6215416;22;45264;-79
2022/08/14 10:47:01;;;;;;;;;7.40;5.60;;;;;30.00;65.62;100223.13;6214687;22;44757;-79
2022/08/14 10:49:28;;;;;;;;;2.00;2.00;;;;;30.29;64.77;100235.78;6214239;22;45162;-79
2022/08/14 10:52:09;;;;;;;;;6.80;5.80;;;;;30.13;64.97;100223.72;6212250;22;44682;-78
2022/08/14 10:54:44;;;;;;;;;6.20;5.60;;;;;30.26;65.77;100224.47;6214878;22;45130;-79
2022/08/14 10:57:20;;;;;;;;;8.80;6.60;;;;;30.52;62.90;100218.41;6213936;22;45263;-78
2022/08/14 11:00:16;;;;;;;;;4.80;4.80;;;;;30.87;62.40;100223.69;6214875;22;45244;-78
2022/08/14 11:02:41;;;;;;;;;7.80;6.00;;;;;30.94;62.37;100215.28;6214295;22;45278;-79
2022/08/14 11:05:14;;;;;;;;;8.00;5.00;;;;;30.84;62.09;100226.94;6214742;22;44671;-77
2022/08/14 11:07:53;;;;;;;;;6.40;6.40;;;;;30.36;60.49;100219.19;6214064;22;44746;-79
2022/08/14 11:10:19;;;;;;;;;3.80;3.80;;;;;30.35;60.41;100231.25;6215301;22;45544;-79
2022/08/14 11:12:51;;;;;;;;;5.60;5.60;;;;;30.21;61.66;100228.78;6214513;22;45227;-80
2022/08/14 11:15:21;;;;;;;;;9.20;7.00;;;;;30.22;62.19;100229.66;6187473;22;44666;-80
2022/08/14 11:17:49;;;;;;;;;5.00;5.00;;;;;30.27;63.27;100231.63;6216537;22;44817;-81
2022/08/14 11:20:18;;;;;;;;;6.00;5.60;;;;;30.17;63.59;100224.03;6214749;22;45294;-82
2022/08/14 11:22:46;;;;;;;;;7.60;6.00;;;;;30.22;64.84;100235.13;6216286;22;44818;-81
2022/08/14 11:25:14;;;;;;;;;6.80;6.80;;;;;30.16;65.19;100230.59;6216368;22;44715;-79
2022/08/14 11:27:43;;;;;;;;;8.20;7.40;;;;;30.00;67.00;100228.59;6214884;22;44877;-81
2022/08/14 11:30:15;;;;;;;;;8.60;6.40;;;;;30.11;68.58;100227.72;6215424;22;44930;-81
2022/08/14 11:32:43;;;;;;;;;7.00;7.00;;;;;30.34;68.54;100233.16;6214748;22;44806;-81
2022/08/14 11:35:15;;;;;;;;;7.80;7.20;;;;;30.53;67.38;100230.22;6214989;22;45457;-81
2022/08/14 11:37:58;;;;;;;;;5.00;4.80;;;;;30.65;67.70;100228.22;6214571;22;44708;-81
2022/08/14 11:40:25;;;;;;;;;8.00;8.00;;;;;30.76;67.27;100234.75;6215382;22;45021;-81
2022/08/14 11:42:54;;;;;;;;;8.00;8.00;;;;;30.73;67.01;100240.72;6214211;22;45141;-82